sensor_id;sensor_type;location;lat;lon;timestamp;P1;durP1;ratioP1;P2;durP2;ratioP2
15883;SDS011;8040;50.254;10.960;2023-09-30T00:01:58;532.50;;;332.20;;
15883;SDS011;8040;50.254;10.960;2023-09-30T00:04:42;524.03;;;320.40;;
15883;SDS011;8040;50.254;10.960;2023-09-30T00:07:26;526.43;;;328.93;;
15883;SDS011;8040;50.254;10.960;2023-09-30T00:10:10;524.33;;;321.48;;
15883;SDS011;8040;50.254;10.960;2023-09-30T00:12:54;519.08;;;313.88;;
15883;SDS011;8040;50.254;10.960;2023-09-30T00:15:38;528.78;;;328.40;;
15883;SDS011;8040;50.254;10.960;2023-09-30T00:18:23;526.50;;;327.67;;
15883;SDS011;8040;50.254;10.960;2023-09-30T00:21:07;532.80;;;328.58;;
15883;SDS011;8040;50.254;10.960;2023-09-30T00:23:51;519.38;;;317.20;;
15883;SDS011;8040;50.254;10.960;2023-09-30T00:26:35;531.53;;;329.90;;
15883;SDS011;8040;50.254;10.960;2023-09-30T00:29:19;527.13;;;324.55;;
15883;SDS011;8040;50.254;10.960;2023-09-30T00:32:03;537.50;;;332.27;;
15883;SDS011;8040;50.254;10.960;2023-09-30T00:34:48;530.30;;;323.35;;
15883;SDS011;8040;50.254;10.960;2023-09-30T00:37:32;533.58;;;327.50;;
15883;SDS011;8040;50.254;10.960;2023-09-30T00:40:16;533.50;;;325.33;;
15883;SDS011;8040;50.254;10.960;2023-09-30T00:43:00;527.95;;;320.00;;
15883;SDS011;8040;50.254;10.960;2023-09-30T00:45:44;536.08;;;333.50;;
15883;SDS011;8040;50.254;10.960;2023-09-30T00:48:29;531.47;;;325.00;;
15883;SDS011;8040;50.254;10.960;2023-09-30T00:51:13;532.13;;;322.38;;
15883;SDS011;8040;50.254;10.960;2023-09-30T00:53:58;528.65;;;328.50;;
15883;SDS011;8040;50.254;10.960;2023-09-30T00:56:43;529.35;;;323.20;;
15883;SDS011;8040;50.254;10.960;2023-09-30T00:59:31;528.90;;;326.13;;
15883;SDS011;8040;50.254;10.960;2023-09-30T01:02:17;530.45;;;319.40;;
15883;SDS011;8040;50.254;10.960;2023-09-30T01:05:01;527.65;;;323.02;;
15883;SDS011;8040;50.254;10.960;2023-09-30T01:07:46;532.97;;;326.15;;
15883;SDS011;8040;50.254;10.960;2023-09-30T01:10:30;543.60;;;337.88;;
15883;SDS011;8040;50.254;10.960;2023-09-30T01:13:14;535.60;;;334.10;;
15883;SDS011;8040;50.254;10.960;2023-09-30T01:15:58;543.13;;;334.20;;
15883;SDS011;8040;50.254;10.960;2023-09-30T01:18:42;530.90;;;323.20;;
15883;SDS011;8040;50.254;10.960;2023-09-30T01:21:26;537.88;;;331.08;;
15883;SDS011;8040;50.254;10.960;2023-09-30T01:24:11;533.05;;;328.92;;
15883;SDS011;8040;50.254;10.960;2023-09-30T01:26:55;534.80;;;325.47;;
15883;SDS011;8040;50.254;10.960;2023-09-30T01:29:40;530.80;;;320.20;;
15883;SDS011;8040;50.254;10.960;2023-09-30T01:32:24;538.60;;;335.75;;
15883;SDS011;8040;50.254;10.960;2023-09-30T01:35:08;533.35;;;328.23;;
15883;SDS011;8040;50.254;10.960;2023-09-30T01:37:53;533.58;;;330.13;;
15883;SDS011;8040;50.254;10.960;2023-09-30T01:40:37;534.45;;;327.90;;
15883;SDS011;8040;50.254;10.960;2023-09-30T01:43:21;534.70;;;326.55;;
15883;SDS011;8040;50.254;10.960;2023-09-30T01:46:05;542.47;;;338.65;;
15883;SDS011;8040;50.254;10.960;2023-09-30T01:48:50;530.38;;;324.23;;
15883;SDS011;8040;50.254;10.960;2023-09-30T01:51:34;533.88;;;326.55;;
15883;SDS011;8040;50.254;10.960;2023-09-30T01:54:17;537.70;;;329.80;;
15883;SDS011;8040;50.254;10.960;2023-09-30T01:57:01;540.15;;;333.27;;
15883;SDS011;8040;50.254;10.960;2023-09-30T01:59:46;536.05;;;338.15;;
15883;SDS011;8040;50.254;10.960;2023-09-30T02:02:30;543.17;;;339.55;;
15883;SDS011;8040;50.254;10.960;2023-09-30T02:05:15;535.40;;;333.58;;
15883;SDS011;8040;50.254;10.960;2023-09-30T02:07:59;534.55;;;327.98;;
15883;SDS011;8040;50.254;10.960;2023-09-30T02:10:43;538.47;;;330.88;;
15883;SDS011;8040;50.254;10.960;2023-09-30T02:13:27;528.90;;;324.53;;
15883;SDS011;8040;50.254;10.960;2023-09-30T02:16:14;540.80;;;330.27;;
15883;SDS011;8040;50.254;10.960;2023-09-30T02:18:58;534.03;;;327.02;;
15883;SDS011;8040;50.254;10.960;2023-09-30T02:21:42;534.65;;;328.33;;
15883;SDS011;8040;50.254;10.960;2023-09-30T02:24:27;525.80;;;319.65;;
15883;SDS011;8040;50.254;10.960;2023-09-30T02:27:11;536.13;;;330.03;;
15883;SDS011;8040;50.254;10.960;2023-09-30T02:29:55;534.00;;;330.27;;
15883;SDS011;8040;50.254;10.960;2023-09-30T02:32:40;530.88;;;323.10;;
15883;SDS011;8040;50.254;10.960;2023-09-30T02:35:24;532.80;;;326.27;;
15883;SDS011;8040;50.254;10.960;2023-09-30T02:38:09;531.03;;;324.38;;
15883;SDS011;8040;50.254;10.960;2023-09-30T02:40:54;539.17;;;333.25;;
15883;SDS011;8040;50.254;10.960;2023-09-30T02:43:38;528.58;;;321.92;;
15883;SDS011;8040;50.254;10.960;2023-09-30T02:46:22;539.38;;;338.65;;
15883;SDS011;8040;50.254;10.960;2023-09-30T02:49:06;530.95;;;327.10;;
15883;SDS011;8040;50.254;10.960;2023-09-30T02:51:51;535.20;;;328.30;;
15883;SDS011;8040;50.254;10.960;2023-09-30T02:54:35;525.70;;;315.38;;
15883;SDS011;8040;50.254;10.960;2023-09-30T02:57:19;532.03;;;326.65;;
15883;SDS011;8040;50.254;10.960;2023-09-30T03:00:03;526.95;;;315.75;;
15883;SDS011;8040;50.254;10.960;2023-09-30T03:03:07;533.10;;;333.08;;
15883;SDS011;8040;50.254;10.960;2023-09-30T03:05:52;534.55;;;326.92;;
15883;SDS011;8040;50.254;10.960;2023-09-30T03:08:37;534.22;;;326.73;;
15883;SDS011;8040;50.254;10.960;2023-09-30T03:11:21;536.15;;;327.27;;
15883;SDS011;8040;50.254;10.960;2023-09-30T03:14:05;534.28;;;326.35;;
15883;SDS011;8040;50.254;10.960;2023-09-30T03:16:51;535.33;;;328.15;;
15883;SDS011;8040;50.254;10.960;2023-09-30T03:19:35;527.42;;;320.67;;
15883;SDS011;8040;50.254;10.960;2023-09-30T03:22:21;535.42;;;325.55;;
15883;SDS011;8040;50.254;10.960;2023-09-30T03:25:05;534.37;;;333.50;;
15883;SDS011;8040;50.254;10.960;2023-09-30T03:27:50;531.23;;;322.43;;
15883;SDS011;8040;50.254;10.960;2023-09-30T03:30:34;535.78;;;327.70;;
15883;SDS011;8040;50.254;10.960;2023-09-30T03:33:18;534.25;;;324.75;;
15883;SDS011;8040;50.254;10.960;2023-09-30T03:36:02;547.28;;;332.17;;
15883;SDS011;8040;50.254;10.960;2023-09-30T03:38:47;534.97;;;327.77;;
15883;SDS011;8040;50.254;10.960;2023-09-30T03:41:33;534.35;;;325.75;;
15883;SDS011;8040;50.254;10.960;2023-09-30T03:44:19;532.38;;;324.58;;
15883;SDS011;8040;50.254;10.960;2023-09-30T03:47:03;542.92;;;335.98;;
15883;SDS011;8040;50.254;10.960;2023-09-30T03:49:47;537.40;;;331.55;;
15883;SDS011;8040;50.254;10.960;2023-09-30T03:52:33;533.92;;;325.80;;
15883;SDS011;8040;50.254;10.960;2023-09-30T03:55:18;538.83;;;334.45;;
15883;SDS011;8040;50.254;10.960;2023-09-30T03:58:04;533.97;;;329.48;;
15883;SDS011;8040;50.254;10.960;2023-09-30T04:00:47;547.10;;;342.15;;
15883;SDS011;8040;50.254;10.960;2023-09-30T04:03:33;534.20;;;329.60;;
15883;SDS011;8040;50.254;10.960;2023-09-30T04:06:18;543.28;;;332.42;;
15883;SDS011;8040;50.254;10.960;2023-09-30T04:09:02;541.10;;;335.90;;
15883;SDS011;8040;50.254;10.960;2023-09-30T04:11:46;540.25;;;329.50;;
15883;SDS011;8040;50.254;10.960;2023-09-30T04:14:31;539.83;;;339.05;;
15883;SDS011;8040;50.254;10.960;2023-09-30T04:17:14;540.33;;;329.17;;
15883;SDS011;8040;50.254;10.960;2023-09-30T04:19:58;539.03;;;326.77;;
15883;SDS011;8040;50.254;10.960;2023-09-30T04:22:45;536.10;;;326.57;;
15883;SDS011;8040;50.254;10.960;2023-09-30T04:25:32;542.08;;;334.48;;
15883;SDS011;8040;50.254;10.960;2023-09-30T04:28:16;541.83;;;330.42;;
15883;SDS011;8040;50.254;10.960;2023-09-30T04:31:04;547.50;;;337.02;;
15883;SDS011;8040;50.254;10.960;2023-09-30T04:33:49;541.63;;;340.13;;
15883;SDS011;8040;50.254;10.960;2023-09-30T04:36:36;542.05;;;339.40;;
15883;SDS011;8040;50.254;10.960;2023-09-30T04:39:20;536.95;;;329.35;;
15883;SDS011;8040;50.254;10.960;2023-09-30T04:42:04;544.25;;;334.83;;
15883;SDS011;8040;50.254;10.960;2023-09-30T04:44:48;542.33;;;332.95;;
15883;SDS011;8040;50.254;10.960;2023-09-30T04:47:33;542.30;;;333.20;;
15883;SDS011;8040;50.254;10.960;2023-09-30T04:50:18;548.33;;;342.75;;
15883;SDS011;8040;50.254;10.960;2023-09-30T04:53:05;545.72;;;341.40;;
15883;SDS011;8040;50.254;10.960;2023-09-30T04:55:49;548.88;;;345.15;;
15883;SDS011;8040;50.254;10.960;2023-09-30T04:58:34;539.63;;;334.30;;
15883;SDS011;8040;50.254;10.960;2023-09-30T05:01:18;548.95;;;338.55;;
15883;SDS011;8040;50.254;10.960;2023-09-30T05:04:02;543.03;;;333.45;;
15883;SDS011;8040;50.254;10.960;2023-09-30T05:06:46;546.17;;;336.75;;
15883;SDS011;8040;50.254;10.960;2023-09-30T05:09:30;543.92;;;336.40;;
15883;SDS011;8040;50.254;10.960;2023-09-30T05:12:15;548.20;;;343.50;;
15883;SDS011;8040;50.254;10.960;2023-09-30T05:15:00;538.53;;;326.23;;
15883;SDS011;8040;50.254;10.960;2023-09-30T05:17:46;549.13;;;344.23;;
15883;SDS011;8040;50.254;10.960;2023-09-30T05:20:31;548.17;;;347.77;;
15883;SDS011;8040;50.254;10.960;2023-09-30T05:23:15;547.10;;;346.67;;
15883;SDS011;8040;50.254;10.960;2023-09-30T05:25:59;551.88;;;343.02;;
15883;SDS011;8040;50.254;10.960;2023-09-30T05:28:43;551.63;;;344.17;;
15883;SDS011;8040;50.254;10.960;2023-09-30T05:31:27;555.38;;;343.15;;
15883;SDS011;8040;50.254;10.960;2023-09-30T05:34:11;545.38;;;342.50;;
15883;SDS011;8040;50.254;10.960;2023-09-30T05:36:55;559.20;;;348.48;;
15883;SDS011;8040;50.254;10.960;2023-09-30T05:39:39;550.53;;;338.58;;
15883;SDS011;8040;50.254;10.960;2023-09-30T05:42:24;553.08;;;348.65;;
15883;SDS011;8040;50.254;10.960;2023-09-30T05:45:08;544.10;;;335.80;;
15883;SDS011;8040;50.254;10.960;2023-09-30T05:47:53;546.97;;;338.35;;
15883;SDS011;8040;50.254;10.960;2023-09-30T05:50:39;551.08;;;336.27;;
15883;SDS011;8040;50.254;10.960;2023-09-30T05:53:23;550.28;;;339.98;;
15883;SDS011;8040;50.254;10.960;2023-09-30T05:56:08;553.25;;;341.38;;
15883;SDS011;8040;50.254;10.960;2023-09-30T05:58:55;544.42;;;337.00;;
15883;SDS011;8040;50.254;10.960;2023-09-30T06:01:39;540.53;;;329.42;;
15883;SDS011;8040;50.254;10.960;2023-09-30T06:04:24;546.33;;;336.92;;
15883;SDS011;8040;50.254;10.960;2023-09-30T06:07:09;548.87;;;336.47;;
15883;SDS011;8040;50.254;10.960;2023-09-30T06:09:53;549.72;;;341.35;;
15883;SDS011;8040;50.254;10.960;2023-09-30T06:12:38;553.53;;;349.15;;
15883;SDS011;8040;50.254;10.960;2023-09-30T06:15:22;561.67;;;350.05;;
15883;SDS011;8040;50.254;10.960;2023-09-30T06:18:09;557.63;;;347.00;;
15883;SDS011;8040;50.254;10.960;2023-09-30T06:20:55;556.03;;;343.35;;
15883;SDS011;8040;50.254;10.960;2023-09-30T06:23:41;548.53;;;336.48;;
15883;SDS011;8040;50.254;10.960;2023-09-30T06:26:26;544.05;;;330.80;;
15883;SDS011;8040;50.254;10.960;2023-09-30T06:29:14;550.63;;;337.38;;
15883;SDS011;8040;50.254;10.960;2023-09-30T06:31:58;542.53;;;334.90;;
15883;SDS011;8040;50.254;10.960;2023-09-30T06:34:42;543.97;;;335.27;;
15883;SDS011;8040;50.254;10.960;2023-09-30T06:37:26;563.93;;;343.10;;
15883;SDS011;8040;50.254;10.960;2023-09-30T06:40:13;561.87;;;336.63;;
15883;SDS011;8040;50.254;10.960;2023-09-30T06:42:57;560.33;;;347.63;;
15883;SDS011;8040;50.254;10.960;2023-09-30T06:45:41;561.95;;;349.52;;
15883;SDS011;8040;50.254;10.960;2023-09-30T06:48:27;569.72;;;353.90;;
15883;SDS011;8040;50.254;10.960;2023-09-30T06:51:14;563.97;;;345.60;;
15883;SDS011;8040;50.254;10.960;2023-09-30T06:53:59;554.80;;;344.52;;
15883;SDS011;8040;50.254;10.960;2023-09-30T06:56:44;558.97;;;345.33;;
15883;SDS011;8040;50.254;10.960;2023-09-30T06:59:28;555.78;;;342.42;;
15883;SDS011;8040;50.254;10.960;2023-09-30T07:02:12;558.10;;;341.63;;
15883;SDS011;8040;50.254;10.960;2023-09-30T07:04:56;551.17;;;335.00;;
15883;SDS011;8040;50.254;10.960;2023-09-30T07:07:41;562.63;;;344.85;;
15883;SDS011;8040;50.254;10.960;2023-09-30T07:10:29;562.28;;;348.75;;
15883;SDS011;8040;50.254;10.960;2023-09-30T07:13:13;559.88;;;339.48;;
15883;SDS011;8040;50.254;10.960;2023-09-30T07:15:57;565.97;;;339.70;;
15883;SDS011;8040;50.254;10.960;2023-09-30T07:18:41;551.10;;;330.03;;
15883;SDS011;8040;50.254;10.960;2023-09-30T07:21:25;556.83;;;331.80;;
15883;SDS011;8040;50.254;10.960;2023-09-30T07:24:09;553.97;;;343.23;;
15883;SDS011;8040;50.254;10.960;2023-09-30T07:26:54;568.63;;;340.38;;
15883;SDS011;8040;50.254;10.960;2023-09-30T07:29:39;561.22;;;346.67;;
15883;SDS011;8040;50.254;10.960;2023-09-30T07:32:23;554.40;;;338.25;;
15883;SDS011;8040;50.254;10.960;2023-09-30T07:35:07;559.85;;;339.52;;
15883;SDS011;8040;50.254;10.960;2023-09-30T07:37:52;552.15;;;343.67;;
15883;SDS011;8040;50.254;10.960;2023-09-30T07:40:37;556.58;;;342.58;;
15883;SDS011;8040;50.254;10.960;2023-09-30T07:43:24;540.53;;;332.23;;
15883;SDS011;8040;50.254;10.960;2023-09-30T07:46:08;548.38;;;340.95;;
15883;SDS011;8040;50.254;10.960;2023-09-30T07:48:52;546.72;;;337.02;;
15883;SDS011;8040;50.254;10.960;2023-09-30T07:51:36;554.50;;;337.50;;
15883;SDS011;8040;50.254;10.960;2023-09-30T07:54:23;542.72;;;334.02;;
15883;SDS011;8040;50.254;10.960;2023-09-30T07:57:07;554.95;;;344.25;;
15883;SDS011;8040;50.254;10.960;2023-09-30T07:59:51;545.60;;;334.80;;
15883;SDS011;8040;50.254;10.960;2023-09-30T08:02:35;548.03;;;341.55;;
15883;SDS011;8040;50.254;10.960;2023-09-30T08:05:20;552.72;;;337.30;;
15883;SDS011;8040;50.254;10.960;2023-09-30T08:08:04;547.13;;;340.15;;
15883;SDS011;8040;50.254;10.960;2023-09-30T08:10:49;555.05;;;343.58;;
15883;SDS011;8040;50.254;10.960;2023-09-30T08:13:34;546.13;;;342.85;;
15883;SDS011;8040;50.254;10.960;2023-09-30T08:16:18;554.53;;;349.27;;
15883;SDS011;8040;50.254;10.960;2023-09-30T08:19:03;552.03;;;341.58;;
15883;SDS011;8040;50.254;10.960;2023-09-30T08:21:48;561.42;;;345.13;;
15883;SDS011;8040;50.254;10.960;2023-09-30T08:24:33;550.53;;;339.30;;
15883;SDS011;8040;50.254;10.960;2023-09-30T08:27:17;559.85;;;348.02;;
15883;SDS011;8040;50.254;10.960;2023-09-30T08:30:01;568.37;;;355.33;;
15883;SDS011;8040;50.254;10.960;2023-09-30T08:32:49;556.38;;;349.67;;
15883;SDS011;8040;50.254;10.960;2023-09-30T08:35:36;568.28;;;359.10;;
15883;SDS011;8040;50.254;10.960;2023-09-30T08:38:21;559.88;;;352.15;;
15883;SDS011;8040;50.254;10.960;2023-09-30T08:41:06;569.70;;;357.88;;
15883;SDS011;8040;50.254;10.960;2023-09-30T08:43:53;561.53;;;349.65;;
15883;SDS011;8040;50.254;10.960;2023-09-30T08:46:43;549.67;;;342.23;;
15883;SDS011;8040;50.254;10.960;2023-09-30T08:49:28;540.45;;;339.80;;
15883;SDS011;8040;50.254;10.960;2023-09-30T08:52:12;567.30;;;362.02;;
15883;SDS011;8040;50.254;10.960;2023-09-30T08:54:58;575.05;;;368.52;;
15883;SDS011;8040;50.254;10.960;2023-09-30T08:57:43;569.90;;;361.88;;
15883;SDS011;8040;50.254;10.960;2023-09-30T09:00:27;565.22;;;357.88;;
15883;SDS011;8040;50.254;10.960;2023-09-30T09:03:11;558.88;;;355.85;;
15883;SDS011;8040;50.254;10.960;2023-09-30T09:05:55;570.67;;;357.60;;
15883;SDS011;8040;50.254;10.960;2023-09-30T09:08:39;562.80;;;357.30;;
15883;SDS011;8040;50.254;10.960;2023-09-30T09:11:24;567.88;;;365.67;;
15883;SDS011;8040;50.254;10.960;2023-09-30T09:14:08;558.97;;;353.00;;
15883;SDS011;8040;50.254;10.960;2023-09-30T09:16:53;569.13;;;365.88;;
15883;SDS011;8040;50.254;10.960;2023-09-30T09:19:38;557.75;;;353.90;;
15883;SDS011;8040;50.254;10.960;2023-09-30T09:22:22;579.25;;;359.33;;
15883;SDS011;8040;50.254;10.960;2023-09-30T09:25:06;567.92;;;361.48;;
15883;SDS011;8040;50.254;10.960;2023-09-30T09:27:51;573.28;;;357.35;;
15883;SDS011;8040;50.254;10.960;2023-09-30T09:30:37;576.30;;;363.02;;
15883;SDS011;8040;50.254;10.960;2023-09-30T09:33:22;574.50;;;366.50;;
15883;SDS011;8040;50.254;10.960;2023-09-30T09:36:19;568.35;;;358.77;;
15883;SDS011;8040;50.254;10.960;2023-09-30T09:39:03;577.35;;;370.95;;
15883;SDS011;8040;50.254;10.960;2023-09-30T09:41:54;572.90;;;364.33;;
15883;SDS011;8040;50.254;10.960;2023-09-30T09:44:41;568.72;;;359.58;;
15883;SDS011;8040;50.254;10.960;2023-09-30T09:47:25;573.83;;;359.38;;
15883;SDS011;8040;50.254;10.960;2023-09-30T09:50:10;566.65;;;358.05;;
15883;SDS011;8040;50.254;10.960;2023-09-30T09:52:55;562.33;;;357.60;;
15883;SDS011;8040;50.254;10.960;2023-09-30T09:55:42;582.33;;;372.15;;
15883;SDS011;8040;50.254;10.960;2023-09-30T09:58:27;580.70;;;374.95;;
15883;SDS011;8040;50.254;10.960;2023-09-30T10:01:15;584.75;;;371.45;;
15883;SDS011;8040;50.254;10.960;2023-09-30T10:04:00;576.28;;;361.98;;
15883;SDS011;8040;50.254;10.960;2023-09-30T10:06:45;576.28;;;358.55;;
15883;SDS011;8040;50.254;10.960;2023-09-30T10:09:35;567.55;;;363.52;;
15883;SDS011;8040;50.254;10.960;2023-09-30T10:12:21;571.70;;;360.80;;
15883;SDS011;8040;50.254;10.960;2023-09-30T10:15:33;554.83;;;356.23;;
15883;SDS011;8040;50.254;10.960;2023-09-30T10:18:10;572.47;;;356.88;;
15883;SDS011;8040;50.254;10.960;2023-09-30T10:20:55;579.38;;;364.48;;
15883;SDS011;8040;50.254;10.960;2023-09-30T10:23:51;580.60;;;368.33;;
15883;SDS011;8040;50.254;10.960;2023-09-30T10:30:18;579.65;;;359.17;;
15883;SDS011;8040;50.254;10.960;2023-09-30T10:35:46;577.77;;;366.80;;
15883;SDS011;8040;50.254;10.960;2023-09-30T10:50:21;571.25;;;361.98;;
15883;SDS011;8040;50.254;10.960;2023-09-30T10:53:28;581.83;;;369.92;;
15883;SDS011;8040;50.254;10.960;2023-09-30T10:56:12;577.53;;;365.33;;
15883;SDS011;8040;50.254;10.960;2023-09-30T10:58:57;566.88;;;362.60;;
15883;SDS011;8040;50.254;10.960;2023-09-30T11:01:41;569.63;;;356.95;;
15883;SDS011;8040;50.254;10.960;2023-09-30T11:04:26;584.83;;;373.98;;
15883;SDS011;8040;50.254;10.960;2023-09-30T11:07:16;564.22;;;360.40;;
15883;SDS011;8040;50.254;10.960;2023-09-30T11:10:06;562.60;;;365.50;;
15883;SDS011;8040;50.254;10.960;2023-09-30T11:12:57;586.72;;;377.38;;
15883;SDS011;8040;50.254;10.960;2023-09-30T11:15:43;572.65;;;366.48;;
15883;SDS011;8040;50.254;10.960;2023-09-30T11:18:28;557.77;;;362.23;;
15883;SDS011;8040;50.254;10.960;2023-09-30T11:21:13;548.33;;;353.15;;
15883;SDS011;8040;50.254;10.960;2023-09-30T11:23:58;546.67;;;356.10;;
15883;SDS011;8040;50.254;10.960;2023-09-30T11:26:43;579.85;;;370.30;;
15883;SDS011;8040;50.254;10.960;2023-09-30T11:29:27;566.55;;;363.95;;
15883;SDS011;8040;50.254;10.960;2023-09-30T11:32:11;579.70;;;377.02;;
15883;SDS011;8040;50.254;10.960;2023-09-30T11:35:10;574.97;;;374.13;;
15883;SDS011;8040;50.254;10.960;2023-09-30T11:38:05;586.38;;;386.20;;
15883;SDS011;8040;50.254;10.960;2023-09-30T11:40:57;579.37;;;368.63;;
15883;SDS011;8040;50.254;10.960;2023-09-30T11:43:59;568.22;;;370.35;;
15883;SDS011;8040;50.254;10.960;2023-09-30T11:46:58;572.65;;;368.23;;
15883;SDS011;8040;50.254;10.960;2023-09-30T11:49:45;569.28;;;370.55;;
15883;SDS011;8040;50.254;10.960;2023-09-30T11:52:37;550.05;;;363.08;;
15883;SDS011;8040;50.254;10.960;2023-09-30T11:55:24;575.85;;;376.33;;
15883;SDS011;8040;50.254;10.960;2023-09-30T11:58:07;561.58;;;361.15;;
15883;SDS011;8040;50.254;10.960;2023-09-30T12:00:57;568.72;;;374.67;;
15883;SDS011;8040;50.254;10.960;2023-09-30T12:03:43;562.88;;;366.17;;
15883;SDS011;8040;50.254;10.960;2023-09-30T12:06:27;561.00;;;364.70;;
15883;SDS011;8040;50.254;10.960;2023-09-30T12:09:11;567.13;;;370.10;;
15883;SDS011;8040;50.254;10.960;2023-09-30T12:11:58;555.92;;;360.98;;
15883;SDS011;8040;50.254;10.960;2023-09-30T12:14:42;552.00;;;358.30;;
15883;SDS011;8040;50.254;10.960;2023-09-30T12:17:26;550.83;;;363.47;;
15883;SDS011;8040;50.254;10.960;2023-09-30T12:20:10;551.88;;;358.80;;
15883;SDS011;8040;50.254;10.960;2023-09-30T12:22:56;545.95;;;360.02;;
15883;SDS011;8040;50.254;10.960;2023-09-30T12:25:40;562.08;;;367.13;;
15883;SDS011;8040;50.254;10.960;2023-09-30T12:28:26;564.58;;;366.00;;
15883;SDS011;8040;50.254;10.960;2023-09-30T12:31:11;568.50;;;371.88;;
15883;SDS011;8040;50.254;10.960;2023-09-30T12:33:57;556.22;;;367.83;;
15883;SDS011;8040;50.254;10.960;2023-09-30T12:36:43;545.45;;;355.63;;
15883;SDS011;8040;50.254;10.960;2023-09-30T12:39:27;552.53;;;362.88;;
15883;SDS011;8040;50.254;10.960;2023-09-30T12:42:14;543.70;;;360.20;;
15883;SDS011;8040;50.254;10.960;2023-09-30T12:44:59;548.17;;;361.77;;
15883;SDS011;8040;50.254;10.960;2023-09-30T12:47:44;543.95;;;363.50;;
15883;SDS011;8040;50.254;10.960;2023-09-30T12:50:36;541.10;;;351.25;;
15883;SDS011;8040;50.254;10.960;2023-09-30T12:53:20;531.88;;;350.20;;
15883;SDS011;8040;50.254;10.960;2023-09-30T12:56:04;538.78;;;360.77;;
15883;SDS011;8040;50.254;10.960;2023-09-30T12:58:48;549.28;;;359.33;;
15883;SDS011;8040;50.254;10.960;2023-09-30T13:01:32;550.33;;;366.20;;
15883;SDS011;8040;50.254;10.960;2023-09-30T13:04:18;551.90;;;364.87;;
15883;SDS011;8040;50.254;10.960;2023-09-30T13:07:02;557.58;;;367.00;;
15883;SDS011;8040;50.254;10.960;2023-09-30T13:09:46;551.95;;;363.98;;
15883;SDS011;8040;50.254;10.960;2023-09-30T13:12:33;547.80;;;364.50;;
15883;SDS011;8040;50.254;10.960;2023-09-30T13:15:17;543.72;;;353.90;;
15883;SDS011;8040;50.254;10.960;2023-09-30T13:18:02;543.42;;;361.08;;
15883;SDS011;8040;50.254;10.960;2023-09-30T13:20:47;572.85;;;378.38;;
15883;SDS011;8040;50.254;10.960;2023-09-30T13:23:31;573.67;;;383.05;;
15883;SDS011;8040;50.254;10.960;2023-09-30T13:26:16;583.80;;;386.38;;
15883;SDS011;8040;50.254;10.960;2023-09-30T13:29:01;572.17;;;377.48;;
15883;SDS011;8040;50.254;10.960;2023-09-30T13:31:45;575.07;;;385.50;;
15883;SDS011;8040;50.254;10.960;2023-09-30T13:34:29;575.97;;;379.30;;
15883;SDS011;8040;50.254;10.960;2023-09-30T13:37:13;574.70;;;374.05;;
15883;SDS011;8040;50.254;10.960;2023-09-30T13:39:57;586.28;;;387.00;;
15883;SDS011;8040;50.254;10.960;2023-09-30T13:42:41;574.50;;;379.15;;
15883;SDS011;8040;50.254;10.960;2023-09-30T13:45:25;577.17;;;380.95;;
15883;SDS011;8040;50.254;10.960;2023-09-30T13:48:11;563.45;;;371.52;;
15883;SDS011;8040;50.254;10.960;2023-09-30T13:51:03;584.28;;;386.73;;
15883;SDS011;8040;50.254;10.960;2023-09-30T13:53:47;577.92;;;377.30;;
15883;SDS011;8040;50.254;10.960;2023-09-30T13:56:32;570.83;;;371.33;;
15883;SDS011;8040;50.254;10.960;2023-09-30T13:59:16;565.08;;;365.48;;
15883;SDS011;8040;50.254;10.960;2023-09-30T14:02:00;581.97;;;382.98;;
15883;SDS011;8040;50.254;10.960;2023-09-30T14:04:45;570.88;;;375.20;;
15883;SDS011;8040;50.254;10.960;2023-09-30T14:07:29;574.60;;;374.10;;
15883;SDS011;8040;50.254;10.960;2023-09-30T14:10:13;566.58;;;375.02;;
15883;SDS011;8040;50.254;10.960;2023-09-30T14:12:57;564.50;;;370.90;;
15883;SDS011;8040;50.254;10.960;2023-09-30T14:15:41;576.28;;;377.90;;
15883;SDS011;8040;50.254;10.960;2023-09-30T14:18:25;579.63;;;387.05;;
15883;SDS011;8040;50.254;10.960;2023-09-30T14:21:09;572.90;;;374.13;;
15883;SDS011;8040;50.254;10.960;2023-09-30T14:23:53;572.47;;;375.33;;
15883;SDS011;8040;50.254;10.960;2023-09-30T14:26:37;568.60;;;378.52;;
15883;SDS011;8040;50.254;10.960;2023-09-30T14:29:23;594.75;;;387.48;;
15883;SDS011;8040;50.254;10.960;2023-09-30T14:32:08;558.78;;;369.17;;
15883;SDS011;8040;50.254;10.960;2023-09-30T14:34:52;558.42;;;367.45;;
15883;SDS011;8040;50.254;10.960;2023-09-30T14:37:36;580.85;;;385.30;;
15883;SDS011;8040;50.254;10.960;2023-09-30T14:40:20;567.72;;;367.23;;
15883;SDS011;8040;50.254;10.960;2023-09-30T14:43:05;577.42;;;378.90;;
15883;SDS011;8040;50.254;10.960;2023-09-30T14:45:50;590.95;;;384.17;;
15883;SDS011;8040;50.254;10.960;2023-09-30T14:48:34;546.77;;;352.63;;
15883;SDS011;8040;50.254;10.960;2023-09-30T14:51:22;554.13;;;366.67;;
15883;SDS011;8040;50.254;10.960;2023-09-30T14:54:06;556.75;;;365.33;;
15883;SDS011;8040;50.254;10.960;2023-09-30T14:56:50;557.38;;;356.02;;
15883;SDS011;8040;50.254;10.960;2023-09-30T14:59:34;567.25;;;368.17;;
15883;SDS011;8040;50.254;10.960;2023-09-30T15:02:23;573.57;;;386.37;;
15883;SDS011;8040;50.254;10.960;2023-09-30T15:05:08;561.10;;;368.83;;
15883;SDS011;8040;50.254;10.960;2023-09-30T15:07:53;563.95;;;370.00;;
15883;SDS011;8040;50.254;10.960;2023-09-30T15:10:37;572.65;;;379.42;;
15883;SDS011;8040;50.254;10.960;2023-09-30T15:13:21;564.35;;;377.77;;
15883;SDS011;8040;50.254;10.960;2023-09-30T15:16:05;558.40;;;368.77;;
15883;SDS011;8040;50.254;10.960;2023-09-30T15:18:49;549.70;;;350.93;;
15883;SDS011;8040;50.254;10.960;2023-09-30T15:21:33;562.28;;;368.55;;
15883;SDS011;8040;50.254;10.960;2023-09-30T15:24:17;548.20;;;359.90;;
15883;SDS011;8040;50.254;10.960;2023-09-30T15:27:01;565.50;;;366.38;;
15883;SDS011;8040;50.254;10.960;2023-09-30T15:29:46;567.60;;;363.05;;
15883;SDS011;8040;50.254;10.960;2023-09-30T15:32:30;557.40;;;365.10;;
15883;SDS011;8040;50.254;10.960;2023-09-30T15:35:14;552.72;;;359.80;;
15883;SDS011;8040;50.254;10.960;2023-09-30T15:37:58;543.55;;;350.38;;
15883;SDS011;8040;50.254;10.960;2023-09-30T15:40:50;565.22;;;370.48;;
15883;SDS011;8040;50.254;10.960;2023-09-30T15:43:47;554.35;;;360.02;;
15883;SDS011;8040;50.254;10.960;2023-09-30T15:46:34;552.55;;;359.63;;
15883;SDS011;8040;50.254;10.960;2023-09-30T15:49:18;548.35;;;356.80;;
15883;SDS011;8040;50.254;10.960;2023-09-30T15:52:02;545.28;;;359.70;;
15883;SDS011;8040;50.254;10.960;2023-09-30T15:54:46;540.72;;;348.73;;
15883;SDS011;8040;50.254;10.960;2023-09-30T15:57:30;541.75;;;348.17;;